Time;durP1;ratioP1;P1;durP2;ratioP2;P2;SDS_P1;SDS_P2;PMS_P1;PMS_P2;Temp;Humidity;BMP_temperature;BMP_pressure;BME280_temperature;BME280_humidity;BME280_pressure;Samples;Min_cycle;Max_cycle;Signal;HPM_P1;HPM_P2
2022/11/21 00:01:25;;;;;;;24.30;22.20;;;;;;;22.36;47.08;93762.44;6231603;28;103885;-66
2022/11/21 00:04:28;;;;;;;24.80;22.60;;;;;;;22.38;47.16;93764.75;6230626;28;106795;-66
2022/11/21 00:07:31;;;;;;;22.10;20.27;;;;;;;22.35;47.07;93760.88;6221544;27;103734;-65
2022/11/21 00:10:37;;;;;;;23.00;21.00;;;;;;;22.36;46.91;93749.09;6231162;27;103650;-66
2022/11/21 00:13:40;;;;;;;21.87;20.00;;;;;;;22.36;46.58;93753.66;6231001;28;104396;-65
2022/11/21 00:16:45;;;;;;;22.23;20.30;;;;;;;22.36;46.87;93749.09;6217132;28;104225;-65
2022/11/21 00:19:48;;;;;;;22.40;20.50;;;;;;;22.36;46.61;93737.66;6225299;27;103805;-66
2022/11/21 00:22:51;;;;;;;22.10;20.10;;;;;;;22.35;46.96;93728.13;6229618;27;104418;-66
2022/11/21 00:25:56;;;;;;;22.27;20.37;;;;;;;22.35;46.70;93731.56;6230010;28;105100;-66
2022/11/21 00:28:59;;;;;;;22.23;20.37;;;;;;;22.35;46.92;93704.91;6218027;27;104279;-64
2022/11/21 00:32:02;;;;;;;21.30;19.60;;;;;;;22.35;47.07;93688.16;6230776;28;103790;-66
2022/11/21 00:35:06;;;;;;;21.47;19.63;;;;;;;22.33;46.84;93677.78;6230224;28;105624;-65
2022/11/21 00:38:09;;;;;;;21.97;19.97;;;;;;;22.34;46.82;93674.00;6231262;27;103737;-66
2022/11/21 00:41:14;;;;;;;21.30;19.63;;;;;;;22.35;46.87;93666.81;6218877;27;104083;-65
2022/11/21 00:44:17;;;;;;;21.80;19.90;;;;;;;22.35;46.84;93677.47;6231633;28;103897;-65
2022/11/21 00:47:20;;;;;;;19.50;17.80;;;;;;;22.34;46.71;93681.22;6230251;27;103746;-66
2022/11/21 00:50:23;;;;;;;18.83;17.23;;;;;;;22.35;46.87;93685.47;6229488;28;103923;-65
2022/11/21 00:53:26;;;;;;;17.73;16.33;;;;;;;22.35;46.88;93693.47;6219544;27;103737;-66
2022/11/21 00:56:30;;;;;;;18.37;16.87;;;;;;;22.33;46.31;93682.34;6230823;27;103979;-66
2022/11/21 00:59:33;;;;;;;18.80;17.13;;;;;;;22.29;46.93;93674.25;6228236;27;104112;-66
2022/11/21 01:02:36;;;;;;;18.33;16.87;;;;;;;22.33;46.41;93663.69;6225078;27;103858;-66
2022/11/21 01:05:39;;;;;;;18.07;16.47;;;;;;;22.33;46.40;93651.16;6227280;27;103662;-66
2022/11/21 01:08:44;;;;;;;17.53;15.97;;;;;;;22.33;46.90;93645.81;6235267;28;104560;-65
2022/11/21 01:11:48;;;;;;;17.17;15.77;;;;;;;22.32;46.72;93646.16;6234493;28;105209;-65
2022/11/21 01:14:53;;;;;;;18.57;16.97;;;;;;;22.32;46.29;93648.81;6223048;27;103984;-66
2022/11/21 01:17:56;;;;;;;16.67;15.27;;;;;;;22.32;46.50;93646.16;6232793;28;103973;-65
2022/11/21 01:21:00;;;;;;;16.50;15.13;;;;;;;22.30;46.85;93662.50;6235308;28;106252;-64
2022/11/21 01:24:03;;;;;;;15.50;14.20;;;;;;;22.31;46.85;93677.38;6233712;27;103773;-65
2022/11/21 01:27:07;;;;;;;16.50;15.10;;;;;;;22.31;46.65;93681.91;6211518;28;105086;-65
2022/11/21 01:30:12;;;;;;;15.73;14.33;;;;;;;22.31;46.72;93672.03;6233821;27;104027;-65
2022/11/21 01:33:15;;;;;;;16.00;14.70;;;;;;;22.31;46.57;93653.38;6232704;28;103747;-65
2022/11/21 01:36:20;;;;;;;15.07;13.87;;;;;;;22.30;46.75;93643.84;6233735;27;103759;-65
2022/11/21 01:39:23;;;;;;;14.63;13.43;;;;;;;22.30;46.47;93637.72;6225641;27;104240;-65
2022/11/21 01:42:28;;;;;;;15.30;14.07;;;;;;;22.29;46.85;93618.31;6234385;28;103959;-64
2022/11/21 01:45:56;;;;;;;14.50;13.30;;;;;;;22.30;46.49;93611.84;6229427;27;103653;-65
2022/11/21 01:49:03;;;;;;;14.37;13.20;;;;;;;22.31;46.90;93623.28;6216827;28;103722;-65
2022/11/21 01:52:11;;;;;;;13.90;12.80;;;;;;;22.30;46.17;93619.84;6229159;28;104176;-65
2022/11/21 01:55:14;;;;;;;14.00;12.80;;;;;;;22.29;46.81;93617.53;6233926;27;103783;-65
2022/11/21 01:58:20;;;;;;;13.67;12.57;;;;;;;22.30;46.31;93645.72;6234774;27;103935;-65
2022/11/21 02:01:23;;;;;;;15.17;13.90;;;;;;;22.30;46.41;93643.06;6223467;28;103487;-65
2022/11/21 02:04:30;;;;;;;12.70;11.67;;;;;;;22.28;46.32;93651.41;6232733;27;103727;-65
2022/11/21 02:07:39;;;;;;;13.00;11.90;;;;;;;22.29;46.61;93662.84;6233249;28;103753;-65
2022/11/21 02:10:49;;;;;;;12.57;11.47;;;;;;;22.31;46.15;93647.28;6233294;28;106385;-65
2022/11/21 02:13:54;;;;;;;13.67;12.47;;;;;;;22.30;46.74;93637.72;6221165;27;104009;-65
2022/11/21 02:17:03;;;;;;;12.07;11.03;;;;;;;22.29;46.46;93658.28;6225115;28;103636;-65
2022/11/21 02:20:09;;;;;;;12.60;11.50;;;;;;;22.30;46.41;93683.81;6233493;27;103961;-65
2022/11/21 02:23:18;;;;;;;12.17;11.20;;;;;;;22.30;46.14;93661.72;6225956;27;103404;-64
2022/11/21 02:26:23;;;;;;;10.97;10.07;;;;;;;22.27;46.31;93649.84;6227408;27;104557;-64
2022/11/21 02:29:26;;;;;;;11.33;10.43;;;;;;;22.28;46.38;93653.28;6222982;28;103912;-65
2022/11/21 02:32:34;;;;;;;10.70;9.80;;;;;;;22.29;46.60;93649.50;6233226;27;103630;-64
2022/11/21 02:35:38;;;;;;;10.40;9.40;;;;;;;22.30;46.48;93664.38;6222417;27;104032;-65
2022/11/21 02:38:41;;;;;;;11.37;10.37;;;;;;;22.28;46.34;93640.75;6233306;27;105358;-64
2022/11/21 02:41:52;;;;;;;10.70;9.80;;;;;;;22.28;46.24;93630.09;6222732;27;103819;-65
2022/11/21 02:45:01;;;;;;;11.03;10.13;;;;;;;22.27;46.40;93631.19;6233394;27;103919;-64
2022/11/21 02:48:05;;;;;;;9.80;9.00;;;;;;;22.28;45.96;93627.41;6197202;28;103760;-65
2022/11/21 02:51:08;;;;;;;10.40;9.53;;;;;;;22.28;46.14;93608.00;6231426;28;105073;-65
2022/11/21 02:54:11;;;;;;;9.60;8.80;;;;;;;22.27;46.52;93611.78;6231916;27;103797;-65
2022/11/21 02:57:15;;;;;;;9.13;8.30;;;;;;;22.29;46.41;93590.88;6233203;27;103864;-66
2022/11/21 03:00:19;;;;;;;9.23;8.50;;;;;;;22.26;46.34;93589.69;6223814;27;104586;-67
2022/11/21 03:03:23;;;;;;;8.67;8.03;;;;;;;22.27;46.05;93579.78;6232835;27;103902;-66
2022/11/21 03:06:26;;;;;;;9.33;8.53;;;;;;;22.27;46.31;93579.78;6232170;27;103724;-66
2022/11/21 03:09:29;;;;;;;9.50;8.70;;;;;;;22.27;46.27;93593.13;6226273;27;103752;-67
2022/11/21 03:12:35;;;;;;;8.40;7.63;;;;;;;22.25;46.59;93604.13;6227607;28;103793;-67
2022/11/21 03:15:38;;;;;;;8.10;7.40;;;;;;;22.24;46.31;93591.91;6229862;28;108270;-67
2022/11/21 03:18:41;;;;;;;8.43;7.63;;;;;;;22.25;46.29;93584.69;6228006;28;103514;-67
2022/11/21 03:21:45;;;;;;;8.00;7.30;;;;;;;22.27;45.95;93595.78;6222180;28;106719;-66
2022/11/21 03:24:48;;;;;;;8.73;7.93;;;;;;;22.26;46.15;93594.22;6229039;28;106938;-66
2022/11/21 03:27:53;;;;;;;8.10;7.50;;;;;;;22.26;46.15;93588.91;6224272;27;106729;-67
2022/11/21 03:30:56;;;;;;;7.67;7.00;;;;;;;22.26;45.79;93589.69;6219463;28;105863;-66
2022/11/21 03:33:59;;;;;;;8.17;6.97;;;;;;;22.26;46.07;93589.69;6222398;28;103660;-66
2022/11/21 03:37:02;;;;;;;8.07;7.37;;;;;;;22.26;45.88;93584.34;6231721;28;103519;-67
2022/11/21 03:40:07;;;;;;;7.17;6.57;;;;;;;22.26;46.35;93588.91;6231374;28;103731;-67
2022/11/21 03:43:11;;;;;;;7.17;6.47;;;;;;;22.26;45.98;93588.91;6231983;28;104862;-67
2022/11/21 03:46:14;;;;;;;7.40;6.80;;;;;;;22.24;45.72;93583.91;6219548;27;105460;-67
2022/11/21 03:49:17;;;;;;;6.53;6.03;;;;;;;22.27;46.23;93574.47;6231598;28;103671;-67
2022/11/21 03:52:20;;;;;;;6.13;5.63;;;;;;;22.26;46.30;93586.25;6231819;28;105950;-66
2022/11/21 03:55:23;;;;;;;6.97;6.40;;;;;;;22.26;45.92;93583.56;6226051;27;104468;-66
2022/11/21 03:58:28;;;;;;;6.60;6.03;;;;;;;22.26;46.20;93576.34;6224126;27;104028;-66
2022/11/21 04:01:31;;;;;;;6.13;5.63;;;;;;;22.26;45.75;93576.34;6226368;28;106088;-67
2022/11/21 04:04:38;;;;;;;7.30;6.60;;;;;;;22.27;46.05;93569.13;6231993;27;103553;-66
2022/11/21 04:07:41;;;;;;;6.60;6.00;;;;;;;22.27;45.82;93551.25;6222211;27;104847;-66
2022/11/21 04:10:47;;;;;;;6.80;6.10;;;;;;;22.28;45.74;93536.81;6231235;27;104005;-67
2022/11/21 04:13:51;;;;;;;6.13;5.63;;;;;;;22.27;46.22;93547.81;6221288;28;103939;-66
2022/11/21 04:16:54;;;;;;;6.23;5.73;;;;;;;22.27;45.92;93558.47;6230843;27;103969;-66
2022/11/21 04:19:57;;;;;;;5.80;5.30;;;;;;;22.27;46.51;93540.59;6221618;27;104442;-66
2022/11/21 04:23:00;;;;;;;5.40;4.90;;;;;;;22.31;46.60;93543.34;6230798;28;103514;-62
2022/11/21 04:26:04;;;;;;;5.90;5.30;;;;;;;22.33;46.58;93535.78;6223379;28;106093;-63
2022/11/21 04:29:08;;;;;;;5.83;5.33;;;;;;;22.31;46.17;93548.66;6227654;28;103608;-63
2022/11/21 04:32:11;;;;;;;6.90;5.77;;;;;;;22.32;46.59;93555.53;6207944;28;103781;-63
2022/11/21 04:35:14;;;;;;;5.67;5.07;;;;;;;22.32;46.91;93566.22;6227070;27;104894;-65
2022/11/21 04:38:17;;;;;;;5.87;5.37;;;;;;;22.34;46.74;93575.41;6226085;27;104015;-63
2022/11/21 04:41:20;;;;;;;5.70;5.20;;;;;;;22.28;47.07;93570.69;6224893;27;103800;-64
2022/11/21 04:44:25;;;;;;;7.90;3.53;;;;;;;21.99;43.89;93559.28;6216795;27;104234;-63
2022/11/21 04:47:28;;;;;;;4.87;2.43;;;;;;;21.84;44.15;93567.25;6231511;27;103821;-64
2022/11/21 04:50:31;;;;;;;3.90;2.23;;;;;;;21.76;44.13;93571.59;6232357;27;103849;-65
2022/11/21 04:53:34;;;;;;;4.13;2.80;;;;;;;21.95;44.63;93569.09;6220094;27;104110;-65
2022/11/21 04:56:44;;;;;;;6.43;2.77;;;;;;;22.22;43.70;93588.81;6229197;28;104122;-64
2022/11/21 04:59:49;;;;;;;4.63;2.70;;;;;;;22.43;44.07;93596.56;6214976;28;104741;-63
2022/11/21 05:02:52;;;;;;;6.07;2.83;;;;;;;22.56;44.62;93614.03;6229186;28;103794;-64
2022/11/21 05:05:55;;;;;;;2.73;2.50;;;;;;;22.65;44.53;93636.00;6209355;27;104908;-64
2022/11/21 05:08:58;;;;;;;2.83;2.23;;;;;;;22.67;44.70;93651.66;6218396;28;104558;-63
2022/11/21 05:15:22;;;;;;;5.30;2.60;;;;;;;22.75;44.53;93615.28;6227060;28;104332;-64
2022/11/21 05:18:27;;;;;;;4.80;2.70;;;;;;;22.76;44.95;93625.59;6225526;27;103731;-63
2022/11/21 05:21:30;;;;;;;6.73;2.60;;;;;;;22.73;45.15;93644.19;6230768;27;104842;-65
2022/11/21 05:24:33;;;;;;;5.07;2.40;;;;;;;22.66;45.58;93640.22;6230992;27;104194;-65
2022/11/21 05:27:36;;;;;;;4.20;2.63;;;;;;;22.66;45.55;93666.88;6221086;27;103749;-65
2022/11/21 05:30:40;;;;;;;3.90;2.77;;;;;;;22.65;45.61;93654.66;6231020;27;104875;-65
2022/11/21 05:33:43;;;;;;;4.27;2.70;;;;;;;22.65;45.22;93641.34;6232213;27;106230;-65
2022/11/21 05:36:46;;;;;;;4.77;2.30;;;;;;;22.64;45.45;93639.78;6229536;28;103611;-65
2022/11/21 05:39:49;;;;;;;3.70;2.23;;;;;;;22.62;45.47;93631.34;6219041;28;103749;-65
2022/11/21 05:46:16;;;;;;;5.23;2.53;;;;;;;22.50;45.75;93670.59;6228347;28;103698;-65
2022/11/21 05:49:19;;;;;;;2.80;1.97;;;;;;;22.46;45.71;93677.75;6224072;27;104257;-65
2022/11/21 05:52:22;;;;;;;3.30;2.30;;;;;;;22.44;45.77;93683.41;6228500;27;103693;-65
2022/11/21 05:55:25;;;;;;;3.30;2.13;;;;;;;22.44;45.28;93690.66;6235563;28;104885;-65
2022/11/21 05:58:29;;;;;;;3.13;2.13;;;;;;;22.41;45.70;93684.88;6235566;28;105870;-65
2022/11/21 06:04:54;;;;;;;2.90;2.00;;;;;;;22.32;45.46;93692.25;6235962;27;104134;-64
2022/11/21 06:07:57;;;;;;;3.00;2.13;;;;;;;22.37;45.78;93701.91;6235255;27;103783;-65
2022/11/21 06:11:00;;;;;;;2.57;1.80;;;;;;;22.36;45.64;93713.69;6235561;27;104096;-64
2022/11/21 06:14:03;;;;;;;2.50;2.10;;;;;;;22.34;45.54;93723.88;6222856;27;103855;-65
2022/11/21 06:17:07;;;;;;;3.93;2.20;;;;;;;22.35;45.51;93736.13;6235450;27;104967;-65
2022/11/21 06:20:11;;;;;;;3.90;1.80;;;;;;;22.34;45.25;93715.88;6235113;28;104741;-64
2022/11/21 06:23:14;;;;;;;3.47;1.80;;;;;;;22.35;45.77;93742.22;6232641;28;104778;-65
2022/11/21 06:26:19;;;;;;;3.23;1.90;;;;;;;22.33;45.52;93772.97;6227744;27;105711;-65
2022/11/21 06:29:22;;;;;;;1.70;1.60;;;;;;;22.33;45.48;93786.28;6233821;27;103826;-65
2022/11/21 06:32:27;;;;;;;2.40;2.20;;;;;;;22.30;45.34;93744.31;6234935;28;103751;-66
2022/11/21 06:35:30;;;;;;;2.80;2.17;;;;;;;22.32;45.69;93750.09;6225585;28;104224;-65
2022/11/21 06:38:33;;;;;;;2.60;2.00;;;;;;;22.32;45.33;93814.06;6233680;27;103920;-65
2022/11/21 06:41:36;;;;;;;2.80;2.50;;;;;;;22.32;45.47;93822.06;6234891;27;103309;-65
2022/11/21 06:44:39;;;;;;;3.00;1.67;;;;;;;22.31;45.31;93801.84;6233920;27;103818;-65
2022/11/21 06:47:43;;;;;;;5.90;2.13;;;;;;;22.30;45.84;93806.41;6224304;28;103835;-64
2022/11/21 06:50:47;;;;;;;2.77;2.00;;;;;;;22.31;45.20;93825.84;6234592;28;103743;-65
2022/11/21 06:53:54;;;;;;;2.73;1.90;;;;;;;22.31;45.68;93839.16;6235217;27;103791;-65
2022/11/21 06:56:58;;;;;;;2.70;1.83;;;;;;;22.28;45.16;93839.84;6234765;28;104765;-65
2022/11/21 07:00:01;;;;;;;2.00;1.80;;;;;;;22.29;45.20;93884.03;6222886;28;103913;-65
2022/11/21 07:03:05;;;;;;;2.30;1.63;;;;;;;22.30;45.55;93890.91;6234127;27;104157;-64
2022/11/21 07:06:08;;;;;;;3.97;1.60;;;;;;;22.30;45.63;93910.34;6234852;28;105901;-64
2022/11/21 07:09:11;;;;;;;2.77;2.23;;;;;;;22.30;45.39;93913.00;6228830;27;103745;-64
2022/11/21 07:16:01;;;;;;;2.10;1.90;;;;;;;22.30;45.53;93901.56;6234032;28;103972;-64
2022/11/21 07:19:06;;;;;;;2.73;2.40;;;;;;;22.28;45.30;93949.88;6234193;27;103886;-64
2022/11/21 07:22:09;;;;;;;2.53;2.00;;;;;;;22.29;45.38;93902.69;6222620;27;103929;-65
2022/11/21 07:25:12;;;;;;;2.30;1.60;;;;;;;22.28;45.43;93925.13;6234444;28;103726;-64
2022/11/21 07:28:15;;;;;;;2.37;2.17;;;;;;;22.26;45.62;93946.78;6234027;28;104858;-64
2022/11/21 07:31:18;;;;;;;2.90;1.80;;;;;;;22.28;45.15;93943.78;6234171;27;103774;-64
2022/11/21 07:34:23;;;;;;;1.60;1.50;;;;;;;22.26;45.62;93938.78;6226353;27;104825;-64
2022/11/21 07:37:26;;;;;;;1.83;1.73;;;;;;;22.27;45.04;93948.31;6234595;27;103928;-64
2022/11/21 07:40:32;;;;;;;2.13;1.70;;;;;;;22.27;45.15;93966.19;6234363;27;103928;-64
2022/11/21 07:43:35;;;;;;;2.60;2.40;;;;;;;22.27;45.42;93980.31;6223222;27;103821;-64
2022/11/21 07:46:38;;;;;;;3.40;2.73;;;;;;;22.26;45.01;93976.09;6232784;27;103733;-64
2022/11/21 07:49:43;;;;;;;3.27;3.03;;;;;;;22.24;45.45;93986.31;6234143;28;104247;-65
2022/11/21 07:52:46;;;;;;;3.57;3.00;;;;;;;22.26;44.85;93972.66;6234047;28;103918;-65
2022/11/21 07:55:49;;;;;;;3.30;3.00;;;;;;;22.25;45.22;93976.41;6223592;27;103665;-65
2022/11/21 07:58:52;;;;;;;3.40;2.70;;;;;;;22.24;44.89;93985.53;6233574;27;103439;-64
2022/11/21 08:01:55;;;;;;;3.10;2.77;;;;;;;22.22;44.81;94001.06;6233557;27;103838;-65
2022/11/21 08:04:59;;;;;;;3.10;2.80;;;;;;;22.23;45.39;94007.97;6233343;27;104712;-65
2022/11/21 08:08:02;;;;;;;2.67;2.47;;;;;;;22.23;45.37;94015.94;6222843;28;103656;-65
2022/11/21 08:11:06;;;;;;;3.17;2.97;;;;;;;22.22;44.99;94014.41;6232715;27;104081;-65
2022/11/21 08:14:09;;;;;;;2.83;2.63;;;;;;;22.23;45.35;94034.59;6232666;27;103879;-65
2022/11/21 08:17:12;;;;;;;3.57;3.27;;;;;;;22.23;44.82;94031.94;6227561;27;103864;-65
2022/11/21 08:20:17;;;;;;;3.20;3.00;;;;;;;22.21;45.03;94032.28;6226471;27;103656;-65
2022/11/21 08:23:20;;;;;;;3.20;3.00;;;;;;;22.22;44.81;94038.38;6232421;27;103776;-65
2022/11/21 08:26:23;;;;;;;3.70;2.90;;;;;;;22.22;44.91;94041.81;6233200;27;103797;-65
2022/11/21 08:29:26;;;;;;;2.80;2.60;;;;;;;22.23;44.89;94053.25;6221740;27;104870;-64
2022/11/21 08:32:30;;;;;;;2.67;2.47;;;;;;;22.21;44.89;94052.81;6232581;27;103693;-65
2022/11/21 08:35:36;;;;;;;2.67;2.47;;;;;;;22.21;45.28;94052.81;6232979;27;104801;-65
2022/11/21 08:38:39;;;;;;;2.50;2.30;;;;;;;22.23;44.96;94069.25;6233589;28;104518;-65
2022/11/21 08:45:03;;;;;;;2.70;2.20;;;;;;;22.21;45.18;94068.81;6233084;27;104567;-65
2022/11/21 08:48:10;;;;;;;2.40;2.20;;;;;;;22.22;44.52;94068.47;6231903;27;103612;-65
2022/11/21 08:51:15;;;;;;;2.27;2.07;;;;;;;22.27;44.65;94062.91;6227246;27;103794;-65
2022/11/21 08:54:18;;;;;;;2.03;1.83;;;;;;;22.28;44.70;94053.81;6227722;28;103553;-64
2022/11/21 08:57:21;;;;;;;2.53;2.03;;;;;;;22.28;44.53;94061.81;6232387;28;104064;-64
2022/11/21 09:00:25;;;;;;;2.20;2.00;;;;;;;22.29;44.62;94052.72;6232961;28;104246;-64
2022/11/21 09:03:28;;;;;;;3.60;2.70;;;;;;;22.37;44.73;94072.38;6222304;27;103823;-63
2022/11/21 09:06:35;;;;;;;3.50;3.00;;;;;;;22.42;44.44;94093.50;6232381;28;103776;-64
2022/11/21 09:09:38;;;;;;;3.13;2.83;;;;;;;22.42;45.03;94086.28;6232414;27;103919;-63
2022/11/21 09:12:41;;;;;;;2.70;2.50;;;;;;;22.41;44.90;94091.94;6231492;27;104017;-63
2022/11/21 09:19:05;;;;;;;2.90;2.70;;;;;;;22.35;44.50;94099.38;6231365;28;103792;-64
2022/11/21 09:22:09;;;;;;;4.90;3.43;;;;;;;22.33;44.43;94092.78;6231551;28;104888;-64
2022/11/21 09:25:12;;;;;;;2.90;2.70;;;;;;;22.29;45.00;94103.34;6227641;27;103886;-64
2022/11/21 09:28:15;;;;;;;3.73;3.30;;;;;;;22.24;44.78;94097.44;6231608;27;103984;-64
2022/11/21 09:31:18;;;;;;;3.73;3.17;;;;;;;22.25;44.63;94091.78;6236819;27;104993;-65
2022/11/21 09:34:21;;;;;;;2.87;2.67;;;;;;;22.23;44.49;94101.22;6236416;27;103879;-64
2022/11/21 09:37:26;;;;;;;2.93;2.57;;;;;;;22.22;44.76;94094.34;6225229;27;103751;-64
2022/11/21 09:40:30;;;;;;;2.63;2.43;;;;;;;22.22;44.84;94103.13;6236668;28;103865;-64
2022/11/21 09:43:46;;;;;;;2.90;2.37;;;;;;;22.20;44.70;94097.34;6235761;28;104855;-64
2022/11/21 09:47:03;;;;;;;3.00;2.80;;;;;;;22.21;44.24;94100.78;6236377;28;104745;-64
2022/11/21 09:50:24;;;;;;;2.77;2.40;;;;;;;22.20;44.75;94101.91;6224790;28;103718;-64
2022/11/21 09:53:33;;;;;;;2.80;2.60;;;;;;;22.20;44.40;94101.91;6235690;27;103748;-66
2022/11/21 09:56:41;;;;;;;1.90;1.80;;;;;;;22.19;44.38;94105.66;6235468;27;103792;-65
2022/11/21 09:59:46;;;;;;;2.10;2.00;;;;;;;22.18;44.43;94112.06;6228199;28;104538;-64
2022/11/21 10:02:49;;;;;;;2.90;2.40;;;;;;;22.17;44.66;94118.50;6233782;27;103842;-64
2022/11/21 10:05:54;;;;;;;3.27;2.97;;;;;;;22.17;44.04;94121.19;6235230;27;103726;-64
2022/11/21 10:09:07;;;;;;;2.37;2.17;;;;;;;22.16;43.94;94123.06;6235234;28;103852;-64
2022/11/21 10:12:39;;;;;;;2.07;1.87;;;;;;;22.17;44.40;94121.19;6224133;27;104518;-63
2022/11/21 10:15:56;;;;;;;1.60;1.50;;;;;;;22.16;44.18;94123.06;6236200;28;106646;-64
2022/11/21 10:19:30;;;;;;;1.80;1.70;;;;;;;22.16;43.93;94122.28;6235210;28;104922;-64
2022/11/21 10:22:53;;;;;;;1.63;1.53;;;;;;;22.17;43.94;94129.16;6224365;27;103733;-65
2022/11/21 10:26:11;;;;;;;1.83;1.70;;;;;;;22.18;43.80;94125.41;6235667;28;103738;-65
2022/11/21 10:29:20;;;;;;;1.67;1.50;;;;;;;22.18;44.12;94138.72;6235033;27;103837;-65
2022/11/21 10:32:27;;;;;;;2.17;1.97;;;;;;;22.17;43.75;94140.59;6235520;28;103919;-65
2022/11/21 10:35:37;;;;;;;1.70;1.60;;;;;;;22.16;43.75;94131.06;6224609;28;104777;-65
2022/11/21 10:38:44;;;;;;;1.70;1.60;;;;;;;22.17;44.04;94123.84;6234255;27;104735;-65
2022/11/21 10:41:53;;;;;;;1.60;1.50;;;;;;;22.17;43.58;94134.50;6234611;27;103766;-65
2022/11/21 10:45:19;;;;;;;2.43;1.50;;;;;;;22.17;43.80;94140.59;6230058;28;103568;-64
2022/11/21 10:48:22;;;;;;;2.20;2.00;;;;;;;22.17;43.76;94145.16;6234331;27;103792;-66
2022/11/21 10:51:35;;;;;;;1.37;1.27;;;;;;;22.17;43.77;94139.81;6235295;28;103683;-63
2022/11/21 10:55:04;;;;;;;1.57;1.47;;;;;;;22.18;43.81;94133.41;6234337;28;104154;-66
2022/11/21 10:58:19;;;;;;;1.80;1.47;;;;;;;22.17;43.42;94121.94;6223684;27;103901;-65
2022/11/21 11:01:27;;;;;;;1.63;1.47;;;;;;;22.17;43.74;94121.19;6234788;28;104236;-66
2022/11/21 11:04:31;;;;;;;1.40;1.17;;;;;;;22.18;43.36;94125.41;6234470;28;103736;-64
2022/11/21 11:08:00;;;;;;;1.50;1.40;;;;;;;22.16;43.66;94131.06;6226649;28;104839;-64
2022/11/21 11:11:05;;;;;;;2.03;1.40;;;;;;;22.17;43.29;94129.16;6234416;28;104038;-64
2022/11/21 11:14:14;;;;;;;1.37;1.27;;;;;;;22.17;43.46;94134.50;6234342;27;103853;-64
2022/11/21 11:17:25;;;;;;;1.83;1.30;;;;;;;22.17;43.41;94142.50;6234296;27;104011;-64
2022/11/21 11:20:32;;;;;;;1.70;1.40;;;;;;;22.16;43.82;94139.06;6223859;27;104833;-64
2022/11/21 11:23:35;;;;;;;1.50;1.40;;;;;;;22.17;43.84;94134.50;6233418;27;104937;-64
2022/11/21 11:26:52;;;;;;;1.40;1.30;;;;;;;22.15;43.08;94120.72;6233047;27;103703;-64
2022/11/21 11:29:56;;;;;;;1.50;1.40;;;;;;;22.16;43.45;94132.94;6229602;27;103804;-65
2022/11/21 11:32:59;;;;;;;1.60;1.50;;;;;;;22.16;43.24;94124.94;6227948;28;105036;-63
2022/11/21 11:36:13;;;;;;;1.43;1.33;;;;;;;22.15;43.63;94132.16;6234485;27;103927;-64
2022/11/21 11:39:21;;;;;;;1.37;1.27;;;;;;;22.16;43.11;94131.06;6233550;28;104981;-66
2022/11/21 11:53:26;;;;;;;1.20;1.10;;;;;;;22.16;42.97;94127.63;6202103;27;103742;-65
2022/11/21 11:56:33;;;;;;;1.77;1.47;;;;;;;22.16;43.49;94132.94;6233376;28;104631;-64
2022/11/21 11:59:41;;;;;;;1.40;1.30;;;;;;;22.16;43.15;94132.94;6232847;27;104632;-64
2022/11/21 12:02:52;;;;;;;1.30;1.20;;;;;;;22.16;43.08;94135.59;6233412;27;104131;-65
2022/11/21 12:06:05;;;;;;;1.33;1.20;;;;;;;22.15;43.33;94142.03;6222648;27;103916;-64
2022/11/21 12:09:21;;;;;;;1.37;1.27;;;;;;;22.13;43.35;94142.38;6232944;28;104125;-64
2022/11/21 12:12:33;;;;;;;1.23;1.07;;;;;;;22.13;42.92;94137.03;6232897;28;104597;-65
2022/11/21 12:15:51;;;;;;;1.20;1.10;;;;;;;22.15;43.17;94144.72;6227694;27;103724;-64
2022/11/21 12:19:03;;;;;;;1.43;1.13;;;;;;;22.14;43.48;94140.50;6229211;28;104945;-64
2022/11/21 12:22:07;;;;;;;1.30;1.20;;;;;;;22.13;42.68;94137.03;6232905;27;104237;-64
2022/11/21 12:25:12;;;;;;;1.77;1.37;;;;;;;22.13;43.22;94146.94;6231821;27;103990;-64
2022/11/21 12:28:26;;;;;;;1.63;1.50;;;;;;;22.18;42.78;94147.53;6223897;27;103391;-65
2022/11/21 12:31:39;;;;;;;1.13;1.03;;;;;;;22.23;42.96;94146.53;6232016;27;104045;-64
2022/11/21 12:35:03;;;;;;;1.20;1.10;;;;;;;22.28;43.66;94157.75;6232909;27;103700;-66
2022/11/21 12:38:20;;;;;;;1.57;1.20;;;;;;;22.28;43.59;94154.31;6227978;27;103899;-64
2022/11/21 12:45:10;;;;;;;1.40;1.30;;;;;;;22.31;43.62;94153.66;6187171;27;104710;-64
2022/11/21 12:55:37;;;;;;;1.53;1.43;;;;;;;22.18;43.39;94165.38;6198662;27;103994;-65
2022/11/21 12:58:45;;;;;;;1.50;1.40;;;;;;;22.17;43.56;94174.47;6232935;27;103792;-65
2022/11/21 13:01:58;;;;;;;1.20;1.10;;;;;;;22.16;43.64;94164.91;6220321;27;103802;-65
2022/11/21 13:05:04;;;;;;;1.20;1.10;;;;;;;22.11;43.27;94161.34;6231415;28;104678;-64
2022/11/21 13:08:13;;;;;;;1.30;1.20;;;;;;;22.11;43.09;94158.69;6231516;27;103717;-65
2022/11/21 13:15:04;;;;;;;1.30;1.20;;;;;;;22.10;43.63;94159.81;6223877;27;103230;-65
2022/11/21 13:18:19;;;;;;;1.40;1.30;;;;;;;22.09;42.97;94163.56;6231873;27;104761;-64
2022/11/21 13:21:42;;;;;;;1.30;1.20;;;;;;;22.10;43.18;94178.44;6232269;28;104924;-65
2022/11/21 13:24:58;;;;;;;1.20;1.10;;;;;;;22.09;43.08;94168.91;6219937;27;103717;-64
2022/11/21 13:28:34;;;;;;;1.67;1.20;;;;;;;22.08;43.57;94175.34;6232984;27;103871;-64
2022/11/21 13:31:39;;;;;;;1.67;1.20;;;;;;;22.09;42.88;94176.13;6232006;28;105088;-65
2022/11/21 13:34:42;;;;;;;1.27;1.13;;;;;;;22.07;43.05;94176.44;6226472;27;104340;-65
2022/11/21 13:38:02;;;;;;;1.30;1.20;;;;;;;22.09;43.48;94184.09;6226213;28;104440;-64
2022/11/21 13:44:39;;;;;;;1.20;1.10;;;;;;;22.09;43.21;94181.44;6231418;28;103849;-64
2022/11/21 13:48:11;;;;;;;1.27;1.17;;;;;;;22.08;42.84;94166.56;6222213;27;103709;-64
2022/11/21 13:51:46;;;;;;;1.20;1.10;;;;;;;22.07;42.76;94165.78;6231501;27;103727;-65
2022/11/21 13:55:33;;;;;;;1.07;1.03;;;;;;;22.09;42.89;94176.13;6230888;27;104205;-65
2022/11/21 13:58:50;;;;;;;1.33;1.03;;;;;;;22.09;42.64;94173.44;6220635;27;104161;-64
2022/11/21 14:02:07;;;;;;;1.37;1.27;;;;;;;22.08;42.73;94171.91;6231493;28;103718;-64
2022/11/21 14:05:29;;;;;;;2.03;1.20;;;;;;;22.08;42.57;94185.22;6231830;27;103707;-65
2022/11/21 14:08:33;;;;;;;1.30;1.20;;;;;;;22.08;42.78;94182.56;6230655;27;103834;-65
2022/11/21 14:11:47;;;;;;;1.20;1.10;;;;;;;22.06;42.65;94166.91;6223214;27;103926;-64
2022/11/21 14:14:54;;;;;;;0.90;0.90;;;;;;;22.07;42.57;94157.78;6234981;27;103802;-64
2022/11/21 14:17:59;;;;;;;1.60;1.50;;;;;;;22.07;42.61;94154.34;6235344;27;103881;-64
2022/11/21 14:21:04;;;;;;;1.07;1.00;;;;;;;22.07;42.25;94155.13;6225635;27;104277;-65
2022/11/21 14:24:16;;;;;;;1.37;1.27;;;;;;;22.06;42.25;94161.56;6234234;27;103549;-64
2022/11/21 14:27:29;;;;;;;1.17;1.07;;;;;;;22.07;42.55;94173.00;6234933;27;103829;-63
2022/11/21 14:30:36;;;;;;;1.40;1.30;;;;;;;22.06;42.74;94176.78;6235211;28;103828;-63
2022/11/21 14:33:41;;;;;;;1.43;1.33;;;;;;;22.06;42.31;94182.09;6224297;27;103871;-63
2022/11/21 14:36:44;;;;;;;1.00;1.00;;;;;;;22.03;42.35;94178.22;6234842;27;104093;-63
2022/11/21 14:39:47;;;;;;;1.33;1.23;;;;;;;22.05;42.21;94191.19;6234449;28;103752;-63
2022/11/21 14:43:00;;;;;;;1.40;1.13;;;;;;;22.03;42.43;94186.19;6229599;27;104235;-64
2022/11/21 14:46:05;;;;;;;1.30;1.20;;;;;;;22.04;42.24;94179.00;6228273;27;103804;-64
2022/11/21 14:49:23;;;;;;;1.80;1.50;;;;;;;22.04;42.36;94185.09;6234897;28;103860;-64
2022/11/21 14:52:29;;;;;;;1.60;1.50;;;;;;;22.02;42.73;94191.84;6234387;28;105149;-63
2022/11/21 14:55:33;;;;;;;1.20;1.10;;;;;;;22.03;42.70;94193.41;6224376;28;103879;-65
2022/11/21 14:58:36;;;;;;;0.87;0.87;;;;;;;22.02;42.28;94203.28;6234811;28;103909;-64
2022/11/21 15:01:41;;;;;;;1.30;1.20;;;;;;;22.00;42.33;94194.81;6234393;27;103830;-64
2022/11/21 15:04:52;;;;;;;1.30;1.20;;;;;;;22.00;42.44;94197.47;6235579;27;103035;-64
2022/11/21 15:07:56;;;;;;;1.10;1.00;;;;;;;22.00;42.34;94210.81;6223194;28;105040;-64
2022/11/21 15:11:23;;;;;;;1.13;1.07;;;;;;;22.01;42.01;94214.25;6234528;28;106780;-64
2022/11/21 15:14:31;;;;;;;1.30;1.20;;;;;;;22.00;42.03;94216.13;6233275;28;104679;-64